createdAt,value
2018-06-27T00:00:55.359Z,12.20
2018-06-27T00:03:23.558Z,11.75
2018-06-27T00:05:52.014Z,11.83
2018-06-27T00:08:20.553Z,11.68
2018-06-27T00:10:49.956Z,11.80
2018-06-27T00:13:18.450Z,12.75
2018-06-27T00:15:47.443Z,12.47
2018-06-27T00:18:17.450Z,12.07
2018-06-27T00:20:45.942Z,12.37
2018-06-27T00:23:15.653Z,12.73
2018-06-27T00:25:44.411Z,12.37
2018-06-27T00:28:12.913Z,12.30
2018-06-27T00:30:41.419Z,13.07
2018-06-27T00:33:09.617Z,12.53
2018-06-27T00:35:38.113Z,12.57
2018-06-27T00:38:14.024Z,13.50
2018-06-27T00:40:42.766Z,12.95
2018-06-27T00:43:11.272Z,11.77
2018-06-27T00:45:39.775Z,12.50
2018-06-27T00:48:09.567Z,11.83
2018-06-27T00:50:38.453Z,12.83
2018-06-27T00:53:09.662Z,13.20
2018-06-27T00:55:38.230Z,12.70
2018-06-27T00:58:06.932Z,13.43
2018-06-27T01:00:35.875Z,12.43
2018-06-27T01:03:04.450Z,13.53
2018-06-27T01:05:32.943Z,14.07
2018-06-27T01:08:03.157Z,13.00
2018-06-27T01:10:31.680Z,13.73
2018-06-27T01:13:00.123Z,13.80
2018-06-27T01:15:28.662Z,13.33
2018-06-27T01:17:58.067Z,13.27
2018-06-27T01:20:26.951Z,12.53
2018-06-27T01:22:55.760Z,13.88
2018-06-27T01:25:24.305Z,12.93
2018-06-27T01:27:52.747Z,14.27
2018-06-27T01:30:21.259Z,13.30
2018-06-27T01:32:49.743Z,14.07
2018-06-27T01:35:18.267Z,14.10
2018-06-27T01:37:46.807Z,13.10
2018-06-27T02:02:04.819Z,14.10
2018-06-27T02:04:33.311Z,14.97
2018-06-27T02:07:01.843Z,15.00
2018-06-27T02:09:30.326Z,15.17
2018-06-27T02:11:58.827Z,15.10
2018-06-27T02:14:27.298Z,16.23
2018-06-27T02:16:55.470Z,15.87
2018-06-27T02:19:24.531Z,14.50
2018-06-27T02:21:53.030Z,14.93
2018-06-27T02:24:21.522Z,15.40
2018-06-27T02:26:50.031Z,14.80
2018-06-27T02:40:43.528Z,15.20
2018-06-27T02:43:12.045Z,14.37
2018-06-27T02:45:40.550Z,15.20
2018-06-27T02:48:09.008Z,16.23
2018-06-27T02:50:38.595Z,15.53
2018-06-27T02:53:07.089Z,15.17
2018-06-27T02:55:35.587Z,15.43
2018-06-27T02:58:04.466Z,16.43
2018-06-27T03:00:32.930Z,17.90
2018-06-27T03:03:01.414Z,18.37
2018-06-27T03:05:29.969Z,17.80
2018-06-27T03:07:58.474Z,17.50
2018-06-27T03:10:26.995Z,17.77
2018-06-27T03:12:56.575Z,18.95
2018-06-27T03:15:25.106Z,18.00
2018-06-27T03:17:53.630Z,18.20
2018-06-27T03:20:22.504Z,16.63
2018-06-27T03:22:50.942Z,17.73
2018-06-27T03:25:19.458Z,18.17
2018-06-27T03:27:47.999Z,16.80
2018-06-27T03:30:17.511Z,19.00
2018-06-27T03:32:45.998Z,16.80
2018-06-27T03:47:45.983Z,17.30
2018-06-27T04:02:40.258Z,15.20
2018-06-27T04:05:09.471Z,18.70
2018-06-27T04:07:37.958Z,18.50
2018-06-27T04:10:06.696Z,17.00
2018-06-27T04:12:35.327Z,18.40
2018-06-27T04:15:03.924Z,17.97
2018-06-27T04:17:32.394Z,18.03
2018-06-27T04:20:00.964Z,19.53
2018-06-27T04:22:33.122Z,17.50
2018-06-27T04:25:02.424Z,18.50
2018-06-27T04:27:37.015Z,17.20
2018-06-27T04:30:05.725Z,17.43
2018-06-27T04:32:34.489Z,18.85
2018-06-27T04:35:03.027Z,16.83
2018-06-27T04:37:31.576Z,17.67
2018-06-27T04:40:00.082Z,19.10
2018-06-27T04:42:28.592Z,17.20
2018-06-27T04:44:57.735Z,17.93
2018-06-27T04:47:26.234Z,18.13
2018-06-27T04:49:54.805Z,17.17
2018-06-27T04:52:23.307Z,17.93
2018-06-27T04:54:51.848Z,17.23
2018-06-27T04:57:20.387Z,16.40
2018-06-27T04:59:48.943Z,17.50
2018-06-27T05:02:17.556Z,17.17
2018-06-27T05:04:47.936Z,17.83
2018-06-27T05:07:17.021Z,17.40
2018-06-27T05:09:45.507Z,16.47
2018-06-27T05:21:20.799Z,17.05
2018-06-27T05:23:49.355Z,17.27
2018-06-27T05:26:17.997Z,15.50
2018-06-27T05:28:47.047Z,15.48
2018-06-27T05:43:47.375Z,14.83
2018-06-27T05:46:17.432Z,14.23
2018-06-27T05:48:46.005Z,13.77
2018-06-27T06:03:46.899Z,13.10
2018-06-27T06:06:17.799Z,12.00
2018-06-27T06:08:46.262Z,11.97
2018-06-27T06:23:46.987Z,9.60
2018-06-27T06:38:47.827Z,7.77
2018-06-27T06:41:17.516Z,7.15
2018-06-27T06:43:46.008Z,7.53
2018-06-27T06:58:46.837Z,10.70
2018-06-27T07:01:16.677Z,8.93
2018-06-27T07:03:45.271Z,9.23
2018-06-27T07:06:14.864Z,8.70
2018-06-27T07:08:44.120Z,8.40
2018-06-27T07:11:13.183Z,10.57
2018-06-27T07:13:41.684Z,8.83
2018-06-27T07:16:10.706Z,8.83
2018-06-27T07:18:39.324Z,8.73
2018-06-27T07:21:07.901Z,9.13
2018-06-27T07:23:36.501Z,8.43
2018-06-27T07:26:05.003Z,9.13
2018-06-27T07:28:33.558Z,8.93
2018-06-27T07:31:02.019Z,9.47
2018-06-27T07:33:30.415Z,10.00
2018-06-27T07:35:59.170Z,9.90
2018-06-27T07:38:28.313Z,9.17
2018-06-27T07:41:00.183Z,8.50
2018-06-27T07:43:28.759Z,8.70
2018-06-27T07:45:57.381Z,8.53
2018-06-27T07:48:29.195Z,8.63
2018-06-27T07:50:57.366Z,7.67
2018-06-27T07:53:30.353Z,7.27
2018-06-27T07:55:58.855Z,6.67
2018-06-27T07:58:27.387Z,7.62
2018-06-27T08:00:55.968Z,7.00
2018-06-27T08:03:24.620Z,6.72
2018-06-27T08:05:53.240Z,7.00
2018-06-27T08:08:23.148Z,8.20
2018-06-27T08:10:52.221Z,6.70
2018-06-27T08:13:20.811Z,7.20
2018-06-27T08:15:49.490Z,8.00
2018-06-27T08:18:18.155Z,7.73
2018-06-27T08:20:46.642Z,7.87
2018-06-27T08:32:52.190Z,8.38
2018-06-27T08:35:20.719Z,7.17
2018-06-27T08:37:49.244Z,7.13
2018-06-27T08:40:17.855Z,7.47
2018-06-27T08:42:47.764Z,7.10
2018-06-27T08:45:17.478Z,6.50
2018-06-27T08:47:45.983Z,6.73
2018-06-27T09:10:17.557Z,6.10
2018-06-27T09:12:46.757Z,6.03
2018-06-27T09:15:17.384Z,6.20
2018-06-27T09:17:47.277Z,6.40
2018-06-27T09:20:17.484Z,6.10
2018-06-27T09:22:46.669Z,5.67
2018-06-27T09:25:16.896Z,5.50
2018-06-27T09:27:45.503Z,6.28
2018-06-27T09:50:38.736Z,3.47
2018-06-27T09:53:07.243Z,3.13
2018-06-27T09:55:35.751Z,3.60
2018-06-27T09:58:03.935Z,3.10
2018-06-27T10:00:39.042Z,3.47
2018-06-27T10:03:10.701Z,2.90
2018-06-27T10:05:39.203Z,2.23
2018-06-27T10:08:08.597Z,2.60
2018-06-27T10:10:36.803Z,3.03
2018-06-27T10:13:06.351Z,2.60
2018-06-27T10:15:34.863Z,2.60
2018-06-27T10:18:05.381Z,1.97
2018-06-27T10:20:33.892Z,2.35
2018-06-27T10:23:02.520Z,2.60
2018-06-27T10:25:31.079Z,2.93
2018-06-27T10:27:59.572Z,2.50
2018-06-27T10:30:28.454Z,2.70
2018-06-27T10:32:57.054Z,2.57
2018-06-27T10:35:25.615Z,3.70
2018-06-27T10:37:54.171Z,3.30
2018-06-27T10:40:22.761Z,4.20
2018-06-27T10:42:51.227Z,3.50
2018-06-27T10:45:19.883Z,2.93
2018-06-27T10:47:48.401Z,3.00
2018-06-27T10:50:17.439Z,3.13
2018-06-27T10:52:46.035Z,3.40
2018-06-27T11:16:18.469Z,3.90
2018-06-27T11:18:47.052Z,2.73
2018-06-27T11:21:16.574Z,3.50
2018-06-27T11:23:45.085Z,3.60
2018-06-27T11:26:13.641Z,5.20
2018-06-27T11:28:47.855Z,3.17
2018-06-27T11:31:17.603Z,2.85
2018-06-27T11:33:46.223Z,2.97
2018-06-27T11:44:16.438Z,3.20
2018-06-27T11:46:44.941Z,3.10
2018-06-27T11:49:15.456Z,2.95
2018-06-27T11:51:45.550Z,2.60
2018-06-27T12:06:41.570Z,2.27
2018-06-27T12:09:11.090Z,3.60
2018-06-27T12:11:39.779Z,2.53
2018-06-27T12:14:08.342Z,2.63
2018-06-27T12:16:38.208Z,3.43
2018-06-27T12:19:06.906Z,2.80
2018-06-27T12:21:35.506Z,3.30
2018-06-27T12:24:04.075Z,3.00
2018-06-27T12:26:32.634Z,4.77
2018-06-27T12:29:01.275Z,2.67
2018-06-27T12:31:30.051Z,3.08
2018-06-27T12:33:58.618Z,2.40
2018-06-27T12:36:26.802Z,2.60
2018-06-27T12:38:56.579Z,3.03
2018-06-27T12:41:27.460Z,2.70
2018-06-27T12:43:56.013Z,2.70
2018-06-27T12:46:24.615Z,3.10
2018-06-27T12:48:53.913Z,2.70
2018-06-27T12:51:22.461Z,2.90
2018-06-27T12:53:50.993Z,2.50
2018-06-27T12:56:19.926Z,2.20
2018-06-27T12:58:48.435Z,2.20
2018-06-27T13:01:17.661Z,2.53
2018-06-27T13:03:46.487Z,3.50
2018-06-27T13:14:56.108Z,2.52
2018-06-27T13:17:24.757Z,3.27
2018-06-27T13:19:54.257Z,3.37
2018-06-27T13:22:23.727Z,3.22
2018-06-27T13:24:52.410Z,3.43
2018-06-27T13:27:21.262Z,3.72
2018-06-27T13:41:21.856Z,2.90
2018-06-27T13:43:50.574Z,2.90
2018-06-27T13:46:19.091Z,2.83
2018-06-27T13:48:47.863Z,3.13
2018-06-27T13:51:16.699Z,3.10
2018-06-27T13:53:45.316Z,2.90
2018-06-27T13:56:15.093Z,2.80
2018-06-27T13:58:44.927Z,2.77
2018-06-27T14:01:13.623Z,2.73
2018-06-27T14:03:42.185Z,2.37
2018-06-27T14:06:10.809Z,3.07
2018-06-27T14:08:40.129Z,2.57
2018-06-27T14:11:08.843Z,2.07
2018-06-27T14:13:38.027Z,2.43
2018-06-27T14:16:06.658Z,2.50
2018-06-27T14:18:38.582Z,2.67
2018-06-27T14:21:07.580Z,2.77
2018-06-27T14:23:36.172Z,2.80
2018-06-27T14:26:05.308Z,2.90
2018-06-27T14:28:33.859Z,2.90
2018-06-27T14:31:02.471Z,2.53
2018-06-27T14:33:31.178Z,2.53
2018-06-27T14:35:59.943Z,2.73
2018-06-27T14:38:32.026Z,3.27
2018-06-27T14:41:01.056Z,2.72
2018-06-27T14:43:30.914Z,2.60
2018-06-27T14:45:59.712Z,2.62
2018-06-27T14:48:28.296Z,2.50
2018-06-27T14:50:56.893Z,2.50
2018-06-27T14:53:25.466Z,2.63
2018-06-27T14:55:54.052Z,2.93
2018-06-27T14:58:22.696Z,2.40
2018-06-27T15:00:51.459Z,2.60
2018-06-27T15:03:20.383Z,2.60
2018-06-27T15:05:49.125Z,2.30
2018-06-27T15:08:17.772Z,2.10
2018-06-27T15:10:46.865Z,2.30
2018-06-27T15:13:16.607Z,2.47
2018-06-27T15:15:45.136Z,2.47
2018-06-27T15:18:14.845Z,2.10
2018-06-27T15:20:43.529Z,1.70
2018-06-27T15:23:12.312Z,1.93
2018-06-27T15:25:41.591Z,1.70
2018-06-27T15:28:11.424Z,2.40
2018-06-27T15:30:40.085Z,1.70
2018-06-27T15:33:08.988Z,1.87
2018-06-27T15:35:37.563Z,1.90
2018-06-27T15:38:05.839Z,1.70
2018-06-27T15:40:34.708Z,1.87
2018-06-27T15:43:03.239Z,1.40
2018-06-27T15:45:31.763Z,1.80
2018-06-27T15:48:00.979Z,1.60
2018-06-27T15:50:34.887Z,1.60
2018-06-27T15:53:03.890Z,1.83
2018-06-27T15:55:32.431Z,1.65
2018-06-27T15:58:00.974Z,1.50
2018-06-27T16:00:29.540Z,1.52
2018-06-27T16:02:58.476Z,1.80
2018-06-27T16:05:27.093Z,1.60
2018-06-27T16:07:55.658Z,1.70
2018-06-27T16:10:24.333Z,1.77
2018-06-27T16:12:53.143Z,2.10
2018-06-27T16:15:21.781Z,1.87
2018-06-27T16:17:50.347Z,1.40
2018-06-27T16:20:18.869Z,2.10
2018-06-27T16:22:47.399Z,1.50
2018-06-27T16:25:16.686Z,1.40
2018-06-27T16:27:45.254Z,1.33
2018-06-27T16:30:14.449Z,1.23
2018-06-27T16:32:43.115Z,1.43
2018-06-27T16:35:11.719Z,1.57
2018-06-27T16:37:40.605Z,1.63
2018-06-27T16:40:09.105Z,1.90
2018-06-27T16:42:37.675Z,1.60
2018-06-27T16:45:07.026Z,1.60
2018-06-27T16:47:35.276Z,2.07
2018-06-27T16:50:04.349Z,1.63
2018-06-27T16:52:33.532Z,1.60
2018-06-27T16:55:02.023Z,2.57
2018-06-27T16:57:30.682Z,2.30
2018-06-27T16:59:59.378Z,2.10
2018-06-27T17:02:27.920Z,1.60
2018-06-27T17:04:56.549Z,2.20
2018-06-27T17:07:25.140Z,1.93
2018-06-27T17:09:53.949Z,1.87
2018-06-27T17:12:22.635Z,2.20
2018-06-27T17:14:51.351Z,2.30
2018-06-27T17:17:19.994Z,2.10
2018-06-27T17:19:48.840Z,1.90
2018-06-27T17:22:17.690Z,2.30
2018-06-27T17:24:53.732Z,2.73
2018-06-27T17:27:22.339Z,2.87
2018-06-27T17:29:50.930Z,2.30
2018-06-27T17:32:19.939Z,2.05
2018-06-27T17:34:48.433Z,2.77
2018-06-27T17:37:18.968Z,3.25
2018-06-27T17:39:54.395Z,3.13
2018-06-27T17:42:22.735Z,3.37
2018-06-27T17:44:51.792Z,3.77
2018-06-27T17:47:21.219Z,4.43
2018-06-27T17:49:49.767Z,3.60
2018-06-27T17:52:18.279Z,3.93
2018-06-27T17:54:46.864Z,3.40
2018-06-27T18:06:57.516Z,3.85
2018-06-27T18:09:26.652Z,4.70
2018-06-27T18:11:55.259Z,4.10
2018-06-27T18:14:24.296Z,4.17
2018-06-27T18:16:53.552Z,3.80
2018-06-27T18:19:22.287Z,3.50
2018-06-27T18:21:50.851Z,3.97
2018-06-27T18:24:20.070Z,4.30
2018-06-27T18:26:48.591Z,4.60
2018-06-27T18:29:17.473Z,4.10
2018-06-27T18:31:46.039Z,4.17
2018-06-27T18:34:15.590Z,4.97
2018-06-27T18:36:44.262Z,4.40
2018-06-27T18:39:12.455Z,5.00
2018-06-27T18:41:43.443Z,3.80
2018-06-27T18:44:12.711Z,4.40
2018-06-27T18:46:41.572Z,3.63
2018-06-27T18:49:10.116Z,6.70
2018-06-27T18:51:39.516Z,6.97
2018-06-27T18:54:07.801Z,4.87
2018-06-27T18:56:36.527Z,5.70
2018-06-27T18:59:05.610Z,5.87
2018-06-27T19:01:34.426Z,8.45
2018-06-27T19:04:03.821Z,4.40
2018-06-27T19:06:33.425Z,4.63
2018-06-27T19:09:01.991Z,5.63
2018-06-27T19:11:31.129Z,5.63
2018-06-27T19:13:59.807Z,4.97
2018-06-27T19:16:28.359Z,5.03
2018-06-27T19:18:56.852Z,5.30
2018-06-27T19:21:26.059Z,4.50
2018-06-27T19:23:54.595Z,4.40
2018-06-27T19:26:23.091Z,4.67
2018-06-27T19:28:51.585Z,5.77
2018-06-27T19:31:20.077Z,5.00
2018-06-27T19:33:48.651Z,5.43
2018-06-27T19:36:17.443Z,4.90
2018-06-27T19:38:46.428Z,4.97
2018-06-27T19:57:50.987Z,5.12
2018-06-27T20:00:19.593Z,6.12
2018-06-27T20:02:48.139Z,5.97
2018-06-27T20:05:17.608Z,5.72
2018-06-27T20:07:46.165Z,5.90
2018-06-27T20:10:15.826Z,6.50
2018-06-27T20:12:44.369Z,5.63
2018-06-27T20:15:12.976Z,6.80
2018-06-27T20:17:42.111Z,6.85
2018-06-27T20:20:10.973Z,5.90
2018-06-27T20:22:39.486Z,5.70
2018-06-27T20:25:08.497Z,6.30
2018-06-27T20:27:37.167Z,5.80
2018-06-27T20:30:06.909Z,5.90
2018-06-27T20:32:35.551Z,5.47
2018-06-27T20:35:04.317Z,6.13
2018-06-27T20:37:33.460Z,7.80
2018-06-27T20:40:02.083Z,6.70
2018-06-27T20:42:30.559Z,7.13
2018-06-27T20:45:02.287Z,7.10
2018-06-27T20:47:30.924Z,6.97
2018-06-27T20:49:59.966Z,5.55
2018-06-27T20:52:28.719Z,5.20
2018-06-27T20:54:57.268Z,5.90
2018-06-27T20:57:25.783Z,5.93
2018-06-27T20:59:54.270Z,6.17
2018-06-27T21:02:22.857Z,5.97
2018-06-27T21:04:51.375Z,6.67
2018-06-27T21:07:20.082Z,7.17
2018-06-27T21:09:48.603Z,6.30
2018-06-27T21:12:17.495Z,6.63
2018-06-27T21:14:46.094Z,7.57
2018-06-27T21:35:57.958Z,7.17
2018-06-27T21:38:26.509Z,9.60
2018-06-27T21:40:54.987Z,9.37
2018-06-27T21:43:23.467Z,9.58
2018-06-27T21:45:51.987Z,9.73
2018-06-27T21:48:20.496Z,9.73
2018-06-27T21:50:49.091Z,8.37
2018-06-27T21:53:17.988Z,8.57
2018-06-27T21:55:46.155Z,8.90
2018-06-27T21:58:15.987Z,9.55
2018-06-27T22:00:44.528Z,8.30
2018-06-27T22:03:13.088Z,9.20
2018-06-27T22:05:41.543Z,9.13
2018-06-27T22:08:10.098Z,9.83
2018-06-27T22:10:38.594Z,9.43
2018-06-27T22:13:07.082Z,10.23
2018-06-27T22:15:36.650Z,8.33
2018-06-27T22:18:05.221Z,9.70
2018-06-27T22:20:33.727Z,10.28
2018-06-27T22:23:02.262Z,8.43
2018-06-27T22:25:30.751Z,8.70
2018-06-27T22:27:59.200Z,9.27
2018-06-27T22:30:27.710Z,10.17
2018-06-27T22:32:56.223Z,9.80
2018-06-27T22:35:24.732Z,10.30
2018-06-27T22:37:53.632Z,10.67
2018-06-27T22:40:22.095Z,10.07
2018-06-27T22:42:50.585Z,9.30
2018-06-27T22:45:19.111Z,9.00
2018-06-27T22:47:47.619Z,9.10
2018-06-27T22:50:17.395Z,8.95
2018-06-27T22:52:46.259Z,9.80
2018-06-27T23:04:26.837Z,9.00
2018-06-27T23:06:55.295Z,9.93
2018-06-27T23:09:23.812Z,10.10
2018-06-27T23:11:52.323Z,8.10
2018-06-27T23:14:20.510Z,8.50
2018-06-27T23:16:48.975Z,9.53
2018-06-27T23:19:17.547Z,9.18
2018-06-27T23:21:46.014Z,9.20
2018-06-27T23:24:15.643Z,9.27
2018-06-27T23:26:44.582Z,9.60
2018-06-27T23:29:13.116Z,9.73
2018-06-27T23:31:41.599Z,11.00
2018-06-27T23:34:10.127Z,10.20
2018-06-27T23:36:38.655Z,10.83
2018-06-27T23:39:09.952Z,10.13
2018-06-27T23:41:38.943Z,9.38
2018-06-27T23:44:07.462Z,10.10
2018-06-27T23:46:35.602Z,10.43
2018-06-27T23:49:05.011Z,12.30
2018-06-27T23:51:33.503Z,11.33
2018-06-27T23:54:02.554Z,10.30
2018-06-27T23:56:31.031Z,11.20
2018-06-27T23:58:59.551Z,12.37
